createdAt,value
2019-03-30T00:00:02.071Z,408.46
2019-03-30T00:01:02.014Z,408.78
2019-03-30T00:02:01.974Z,408.73
2019-03-30T00:03:01.970Z,409.54
2019-03-30T00:04:01.957Z,408.10
2019-03-30T00:05:01.948Z,408.85
2019-03-30T00:06:01.949Z,407.74
2019-03-30T00:07:01.929Z,407.25
2019-03-30T00:08:01.917Z,408.09
2019-03-30T00:09:01.895Z,408.11
2019-03-30T00:10:01.897Z,408.08
2019-03-30T00:11:01.922Z,408.29
2019-03-30T00:12:01.866Z,408.34
2019-03-30T00:13:01.869Z,408.16
2019-03-30T00:14:01.839Z,407.58
2019-03-30T00:15:01.831Z,408.68
2019-03-30T00:16:01.896Z,408.29
2019-03-30T00:17:01.811Z,407.48
2019-03-30T00:18:01.803Z,409.53
2019-03-30T00:19:01.802Z,407.34
2019-03-30T00:20:01.772Z,407.42
2019-03-30T00:21:01.781Z,408.11
2019-03-30T00:22:01.768Z,407.55
2019-03-30T00:23:01.734Z,407.20
2019-03-30T00:24:01.746Z,407.42
2019-03-30T00:25:02.383Z,408.00
2019-03-30T00:26:01.749Z,408.27
2019-03-30T00:27:01.693Z,407.94
2019-03-30T00:28:01.689Z,408.95
2019-03-30T00:29:01.693Z,409.12
2019-03-30T00:30:01.671Z,409.06
2019-03-30T00:31:01.680Z,408.88
2019-03-30T00:32:01.648Z,408.37
2019-03-30T00:33:01.630Z,407.95
2019-03-30T00:34:01.632Z,408.10
2019-03-30T00:35:01.619Z,407.74
2019-03-30T00:36:01.664Z,409.26
2019-03-30T00:37:01.596Z,411.45
2019-03-30T00:38:01.580Z,409.80
2019-03-30T00:39:01.578Z,408.96
2019-03-30T00:40:01.555Z,409.96
2019-03-30T00:41:01.565Z,408.33
2019-03-30T00:42:01.549Z,409.17
2019-03-30T00:43:01.522Z,408.41
2019-03-30T00:44:01.509Z,408.12
2019-03-30T00:45:01.517Z,409.67
2019-03-30T00:46:01.549Z,408.05
2019-03-30T00:47:01.482Z,409.14
2019-03-30T00:48:01.511Z,408.52
2019-03-30T00:49:01.451Z,408.72
2019-03-30T00:50:01.453Z,407.95
2019-03-30T00:51:01.469Z,410.35
2019-03-30T00:52:01.432Z,407.56
2019-03-30T00:53:01.413Z,408.59
2019-03-30T00:54:01.410Z,407.53
2019-03-30T00:55:01.396Z,408.24
2019-03-30T00:56:01.392Z,407.44
2019-03-30T00:57:01.399Z,408.37
2019-03-30T00:58:01.368Z,408.40
2019-03-30T00:59:01.345Z,408.68
2019-03-30T01:00:01.340Z,407.48
2019-03-30T01:01:01.317Z,407.93
2019-03-30T01:02:01.325Z,408.38
2019-03-30T01:03:01.314Z,408.64
2019-03-30T01:04:01.298Z,408.96
2019-03-30T01:05:01.280Z,408.84
2019-03-30T01:06:01.275Z,407.71
2019-03-30T01:07:01.289Z,408.29
2019-03-30T01:08:01.244Z,407.39
2019-03-30T01:09:01.241Z,408.19
2019-03-30T01:10:01.225Z,409.02
2019-03-30T01:11:01.212Z,408.06
2019-03-30T01:12:01.216Z,408.62
2019-03-30T01:13:01.195Z,407.87
2019-03-30T01:14:01.189Z,407.87
2019-03-30T01:15:01.181Z,408.77
2019-03-30T01:16:01.158Z,407.61
2019-03-30T01:17:01.156Z,409.45
2019-03-30T01:18:01.134Z,409.23
2019-03-30T01:19:01.130Z,409.43
2019-03-30T01:20:03.015Z,408.36
2019-03-30T01:21:01.112Z,409.27
2019-03-30T01:22:01.084Z,408.36
2019-03-30T01:23:01.095Z,408.87
2019-03-30T01:24:01.074Z,408.44
2019-03-30T01:25:01.058Z,409.19
2019-03-30T01:26:01.048Z,410.57
2019-03-30T01:27:01.032Z,408.10
2019-03-30T01:28:01.042Z,406.75
2019-03-30T01:29:01.017Z,408.49
2019-03-30T01:30:01.008Z,409.08
2019-03-30T01:31:00.993Z,408.07
2019-03-30T01:32:00.978Z,407.87
2019-03-30T01:33:00.981Z,408.89
2019-03-30T01:34:00.955Z,408.68
2019-03-30T01:35:00.974Z,409.53
2019-03-30T01:36:00.943Z,407.63
2019-03-30T01:37:00.922Z,407.76
2019-03-30T01:38:00.933Z,409.11
2019-03-30T01:39:00.901Z,407.29
2019-03-30T01:40:00.891Z,408.19
2019-03-30T01:41:00.880Z,407.06
2019-03-30T01:42:00.890Z,407.90
2019-03-30T01:43:00.869Z,407.74
2019-03-30T01:44:00.844Z,407.39
2019-03-30T01:45:00.825Z,409.06
2019-03-30T01:46:00.829Z,407.57
2019-03-30T01:47:00.832Z,407.10
2019-03-30T01:48:00.840Z,407.62
2019-03-30T01:49:00.802Z,407.83
2019-03-30T01:50:00.781Z,408.55
2019-03-30T01:51:00.769Z,407.48
2019-03-30T01:52:00.760Z,407.34
2019-03-30T01:53:00.768Z,408.17
2019-03-30T01:54:00.735Z,406.83
2019-03-30T01:55:00.741Z,407.88
2019-03-30T01:56:00.716Z,407.16
2019-03-30T01:57:00.718Z,406.92
2019-03-30T01:58:00.716Z,407.91
2019-03-30T01:59:00.703Z,407.33
2019-03-30T02:00:00.676Z,407.36
2019-03-30T02:01:00.658Z,407.71
2019-03-30T02:02:00.654Z,407.46
2019-03-30T02:03:00.653Z,407.96
2019-03-30T02:04:00.643Z,407.75
2019-03-30T02:05:00.620Z,408.12
2019-03-30T02:06:00.612Z,406.60
2019-03-30T02:07:00.584Z,407.41
2019-03-30T02:08:00.616Z,407.40
2019-03-30T02:09:00.574Z,408.17
2019-03-30T02:10:00.586Z,407.37
2019-03-30T02:11:00.551Z,407.30
2019-03-30T02:12:00.531Z,407.00
2019-03-30T02:13:00.550Z,407.74
2019-03-30T02:14:00.572Z,407.47
2019-03-30T02:15:00.497Z,407.07
2019-03-30T02:16:00.498Z,408.88
2019-03-30T02:17:00.477Z,407.01
2019-03-30T02:18:00.473Z,407.08
2019-03-30T02:19:00.473Z,406.57
2019-03-30T02:20:00.461Z,407.43
2019-03-30T02:21:00.450Z,407.48
2019-03-30T02:22:00.424Z,406.72
2019-03-30T02:23:00.419Z,407.28
2019-03-30T02:24:00.421Z,406.05
2019-03-30T02:25:00.392Z,406.98
2019-03-30T02:26:00.388Z,407.03
2019-03-30T02:27:00.381Z,406.52
2019-03-30T02:28:00.362Z,407.18
2019-03-30T02:29:00.386Z,407.85
2019-03-30T02:30:00.501Z,407.61
2019-03-30T02:31:00.340Z,407.34
2019-03-30T02:32:00.310Z,407.52
2019-03-30T02:33:00.317Z,408.26
2019-03-30T02:34:00.457Z,408.48
2019-03-30T02:35:00.448Z,407.28
2019-03-30T02:36:00.266Z,407.76
2019-03-30T02:37:00.268Z,406.92
2019-03-30T02:38:00.261Z,407.82
2019-03-30T02:39:00.281Z,407.86
2019-03-30T02:40:00.552Z,406.92
2019-03-30T02:41:00.218Z,407.43
2019-03-30T02:42:00.218Z,407.30
2019-03-30T02:43:00.206Z,407.61
2019-03-30T02:44:00.232Z,407.22
2019-03-30T02:45:00.510Z,407.28
2019-03-30T02:46:00.156Z,407.40
2019-03-30T02:47:00.153Z,407.88
2019-03-30T02:48:00.134Z,407.93
2019-03-30T02:49:00.143Z,409.19
2019-03-30T02:50:00.469Z,409.23
2019-03-30T02:51:00.098Z,406.96
2019-03-30T02:52:00.106Z,407.78
2019-03-30T02:53:00.087Z,406.87
2019-03-30T02:54:00.079Z,407.13
2019-03-30T02:55:00.091Z,406.99
2019-03-30T02:56:00.053Z,406.72
2019-03-30T02:57:00.052Z,407.91
2019-03-30T02:58:00.035Z,407.48
2019-03-30T02:59:00.032Z,407.78
2019-03-30T03:00:00.035Z,407.67
2019-03-30T03:01:00.015Z,408.22
2019-03-30T03:01:59.996Z,407.85
2019-03-30T03:02:59.984Z,408.06
2019-03-30T03:03:59.959Z,406.79
2019-03-30T03:04:59.973Z,408.63
2019-03-30T03:05:59.936Z,406.69
2019-03-30T03:06:59.927Z,406.76
2019-03-30T03:07:59.929Z,408.07
2019-03-30T03:08:59.926Z,407.50
2019-03-30T03:09:59.940Z,406.06
2019-03-30T03:10:59.886Z,406.41
2019-03-30T03:11:59.882Z,406.98
2019-03-30T03:12:59.868Z,407.66
2019-03-30T03:13:59.859Z,406.92
2019-03-30T03:14:59.901Z,407.48
2019-03-30T03:15:59.841Z,407.90
2019-03-30T03:16:59.815Z,408.26
2019-03-30T03:17:59.835Z,406.56
2019-03-30T03:18:59.797Z,406.73
2019-03-30T03:19:59.805Z,407.84
2019-03-30T03:21:07.591Z,408.41
2019-03-30T03:22:00.773Z,406.31
2019-03-30T03:22:59.769Z,407.68
2019-03-30T03:23:59.765Z,406.85
2019-03-30T03:24:59.745Z,406.86
2019-03-30T03:25:59.764Z,406.37
2019-03-30T03:26:59.716Z,405.71
2019-03-30T03:27:59.706Z,407.05
2019-03-30T03:28:59.689Z,407.15
2019-03-30T03:29:59.712Z,407.80
2019-03-30T03:30:59.670Z,407.04
2019-03-30T03:31:59.655Z,408.05
2019-03-30T03:32:59.657Z,407.70
2019-03-30T03:33:59.642Z,407.78
2019-03-30T03:34:59.648Z,407.01
2019-03-30T03:35:59.651Z,406.47
2019-03-30T03:36:59.593Z,407.36
2019-03-30T03:37:59.606Z,407.00
2019-03-30T03:38:59.588Z,406.98
2019-03-30T03:39:59.579Z,406.63
2019-03-30T03:40:59.574Z,407.40
2019-03-30T03:41:59.544Z,407.29
2019-03-30T03:42:59.534Z,406.88
2019-03-30T03:43:59.525Z,407.01
2019-03-30T03:44:59.513Z,407.13
2019-03-30T03:45:59.554Z,407.06
2019-03-30T03:46:59.490Z,407.98
2019-03-30T03:47:59.486Z,408.05
2019-03-30T03:48:59.464Z,407.58
2019-03-30T03:49:59.447Z,407.16
2019-03-30T03:50:59.462Z,407.10
2019-03-30T03:51:59.451Z,407.06
2019-03-30T03:52:59.416Z,407.60
2019-03-30T03:53:59.415Z,407.66
2019-03-30T03:54:59.399Z,407.55
2019-03-30T03:55:59.407Z,406.99
2019-03-30T03:56:59.379Z,407.39
2019-03-30T03:57:59.359Z,406.90
2019-03-30T03:58:59.354Z,406.41
2019-03-30T03:59:59.369Z,407.22
2019-03-30T04:00:59.345Z,408.77
2019-03-30T04:01:59.335Z,406.85
2019-03-30T04:02:59.311Z,406.75
2019-03-30T04:03:59.298Z,407.27
2019-03-30T04:04:59.283Z,406.45
2019-03-30T04:05:59.311Z,406.25
2019-03-30T04:06:59.272Z,407.26
2019-03-30T04:07:59.286Z,407.38
2019-03-30T04:08:59.241Z,406.85
2019-03-30T04:09:59.240Z,406.41
2019-03-30T04:10:59.215Z,406.23
2019-03-30T04:11:59.228Z,406.47
2019-03-30T04:12:59.197Z,406.63
2019-03-30T04:13:59.275Z,406.25
2019-03-30T04:14:59.181Z,406.63
2019-03-30T04:15:59.170Z,407.09
2019-03-30T04:16:59.162Z,406.72
2019-03-30T04:17:59.144Z,408.14
2019-03-30T04:18:59.140Z,407.85
2019-03-30T04:19:59.132Z,407.02
2019-03-30T04:20:59.106Z,407.01
2019-03-30T04:21:59.176Z,406.64
2019-03-30T04:22:59.110Z,408.16
2019-03-30T04:23:59.088Z,406.18
2019-03-30T04:24:59.066Z,407.14
2019-03-30T04:25:59.058Z,407.35
2019-03-30T04:26:59.052Z,407.45
2019-03-30T04:27:59.033Z,406.16
2019-03-30T04:28:59.016Z,407.12
2019-03-30T04:29:59.018Z,407.26
2019-03-30T04:30:59.011Z,406.81
2019-03-30T04:31:59.052Z,406.88
2019-03-30T04:32:59.002Z,407.19
2019-03-30T04:33:58.979Z,406.92
2019-03-30T04:34:58.969Z,407.23
2019-03-30T04:35:58.951Z,406.50
2019-03-30T04:36:58.951Z,406.56
2019-03-30T04:37:58.919Z,407.07
2019-03-30T04:38:58.926Z,407.07
2019-03-30T04:39:58.901Z,407.10
2019-03-30T04:40:58.885Z,407.39
2019-03-30T04:41:58.900Z,407.07
2019-03-30T04:42:58.869Z,407.52
2019-03-30T04:43:58.862Z,407.99
2019-03-30T04:44:58.843Z,407.66
2019-03-30T04:45:58.852Z,407.31
2019-03-30T04:46:58.845Z,407.28
2019-03-30T04:47:58.836Z,407.71
2019-03-30T04:48:58.805Z,406.96
2019-03-30T04:49:58.790Z,407.02
2019-03-30T04:50:58.786Z,407.10
2019-03-30T04:51:58.802Z,407.83
2019-03-30T04:52:58.815Z,406.71
2019-03-30T04:53:58.758Z,408.63
2019-03-30T04:54:58.738Z,407.34
2019-03-30T04:55:58.727Z,407.48
2019-03-30T04:56:58.757Z,408.13
2019-03-30T04:57:58.697Z,406.08
2019-03-30T04:58:58.701Z,406.46
2019-03-30T04:59:58.691Z,406.52
2019-03-30T05:00:58.670Z,406.33
2019-03-30T05:01:58.675Z,406.56
2019-03-30T05:02:58.686Z,407.08
2019-03-30T05:03:58.647Z,405.87
2019-03-30T05:04:58.623Z,406.41
2019-03-30T05:05:58.626Z,406.55
2019-03-30T05:06:58.608Z,406.39
2019-03-30T05:07:58.611Z,406.71
2019-03-30T05:08:58.586Z,406.81
2019-03-30T05:09:58.575Z,406.46
2019-03-30T05:10:58.568Z,406.42
2019-03-30T05:11:58.558Z,405.88
2019-03-30T05:12:58.559Z,406.61
2019-03-30T05:13:58.538Z,406.91
2019-03-30T05:14:58.532Z,406.12
2019-03-30T05:15:58.501Z,405.80
2019-03-30T05:16:58.521Z,406.35
2019-03-30T05:17:58.531Z,405.77
2019-03-30T05:18:58.480Z,406.56
2019-03-30T05:19:58.460Z,405.88
2019-03-30T05:20:58.450Z,406.24
2019-03-30T05:22:11.428Z,406.12
2019-03-30T05:22:59.474Z,406.93
2019-03-30T05:23:58.450Z,406.75
2019-03-30T05:24:58.415Z,407.22
2019-03-30T05:25:58.393Z,406.25
2019-03-30T05:26:58.396Z,406.50
2019-03-30T05:27:58.381Z,406.90
2019-03-30T05:28:58.390Z,406.38
2019-03-30T05:29:58.362Z,405.86
2019-03-30T05:30:58.351Z,406.63
2019-03-30T05:31:58.336Z,406.20
2019-03-30T05:33:05.435Z,405.90
2019-03-30T05:33:59.319Z,406.32
2019-03-30T05:34:58.307Z,406.28
2019-03-30T05:35:58.333Z,406.99
2019-03-30T05:36:58.276Z,407.00
2019-03-30T05:38:01.294Z,406.79
2019-03-30T05:38:58.290Z,407.20
2019-03-30T05:39:58.252Z,407.00
2019-03-30T05:40:58.239Z,406.94
2019-03-30T05:41:58.216Z,407.28
2019-03-30T05:42:58.215Z,406.33
2019-03-30T05:43:58.190Z,406.87
2019-03-30T05:44:58.239Z,406.68
2019-03-30T05:45:58.183Z,406.60
2019-03-30T05:46:58.161Z,407.70
2019-03-30T05:47:58.153Z,406.92
2019-03-30T05:48:58.154Z,407.36
2019-03-30T05:49:58.152Z,406.60
2019-03-30T05:50:58.139Z,407.51
2019-03-30T05:51:58.138Z,407.40
2019-03-30T05:52:58.103Z,409.17
2019-03-30T05:53:58.081Z,406.52
2019-03-30T05:54:58.104Z,408.71
2019-03-30T05:55:58.067Z,407.16
2019-03-30T05:56:58.053Z,407.61
2019-03-30T05:57:58.062Z,406.49
2019-03-30T05:58:58.042Z,406.41
2019-03-30T05:59:58.068Z,406.57
2019-03-30T06:00:58.027Z,407.08
2019-03-30T06:01:58.006Z,406.73
2019-03-30T06:02:57.984Z,407.85
2019-03-30T06:03:57.977Z,406.80
2019-03-30T06:04:58.659Z,407.14
2019-03-30T06:05:57.970Z,406.60
2019-03-30T06:06:57.941Z,407.49
2019-03-30T06:07:57.937Z,407.33
2019-03-30T06:08:57.943Z,406.88
2019-03-30T06:09:57.910Z,405.62
2019-03-30T06:10:57.923Z,408.25
2019-03-30T06:11:57.885Z,408.31
2019-03-30T06:12:57.887Z,407.53
2019-03-30T06:13:57.878Z,407.03
2019-03-30T06:14:57.853Z,409.13
2019-03-30T06:15:57.873Z,407.10
2019-03-30T06:16:57.859Z,408.19
2019-03-30T06:17:57.814Z,406.91
2019-03-30T06:18:57.819Z,407.48
2019-03-30T06:19:57.821Z,407.18
2019-03-30T06:20:57.810Z,407.64
2019-03-30T06:21:57.783Z,406.62
2019-03-30T06:22:57.763Z,407.62
2019-03-30T06:23:57.751Z,408.04
2019-03-30T06:24:57.745Z,407.45
2019-03-30T06:25:57.728Z,407.45
2019-03-30T06:26:57.742Z,408.06
2019-03-30T06:27:57.709Z,407.38
2019-03-30T06:28:57.735Z,407.12
2019-03-30T06:29:57.685Z,407.14
2019-03-30T06:30:57.699Z,409.19
2019-03-30T06:31:57.673Z,407.90
2019-03-30T06:32:57.642Z,407.88
2019-03-30T06:33:57.668Z,407.70
2019-03-30T06:34:57.635Z,406.82
2019-03-30T06:35:57.649Z,406.81
2019-03-30T06:36:57.625Z,406.71
2019-03-30T06:37:57.602Z,407.58
2019-03-30T06:38:57.591Z,407.33
2019-03-30T06:39:57.579Z,407.07
2019-03-30T06:40:57.567Z,407.33
2019-03-30T06:41:57.566Z,407.11
2019-03-30T06:42:57.553Z,408.94
2019-03-30T06:43:57.539Z,407.06
2019-03-30T06:44:57.534Z,407.61
2019-03-30T06:45:57.510Z,407.25
2019-03-30T06:46:57.576Z,407.13
2019-03-30T06:47:57.500Z,408.05
2019-03-30T06:48:57.487Z,408.62
2019-03-30T06:49:57.458Z,408.00
2019-03-30T06:50:57.465Z,407.79
2019-03-30T06:51:57.451Z,407.78
2019-03-30T06:52:58.749Z,408.60
2019-03-30T06:53:57.434Z,407.58
2019-03-30T06:54:57.421Z,407.42
2019-03-30T06:55:57.396Z,407.80
2019-03-30T06:56:57.398Z,407.62
2019-03-30T06:57:57.395Z,407.46
2019-03-30T06:58:57.364Z,407.64
2019-03-30T06:59:57.382Z,408.19
2019-03-30T07:00:57.347Z,407.08
2019-03-30T07:01:57.406Z,407.26
2019-03-30T07:02:57.347Z,408.04
2019-03-30T07:03:57.320Z,409.18
2019-03-30T07:04:57.320Z,407.91
2019-03-30T07:05:57.300Z,408.10
2019-03-30T07:06:57.279Z,408.26
2019-03-30T07:07:57.293Z,407.41
2019-03-30T07:08:57.274Z,407.07
2019-03-30T07:09:57.243Z,408.42
2019-03-30T07:10:57.243Z,408.01
2019-03-30T07:11:57.247Z,408.08
2019-03-30T07:12:57.246Z,408.05
2019-03-30T07:13:57.201Z,407.41
2019-03-30T07:14:57.187Z,407.10
2019-03-30T07:15:57.196Z,408.83
2019-03-30T07:16:57.174Z,407.79
2019-03-30T07:17:57.172Z,408.57
2019-03-30T07:18:57.161Z,408.43
2019-03-30T07:19:57.137Z,407.89
2019-03-30T07:20:57.121Z,407.65
2019-03-30T07:21:57.118Z,407.38
2019-03-30T07:23:10.668Z,408.65
2019-03-30T07:23:58.086Z,407.28
2019-03-30T07:24:57.079Z,408.51
2019-03-30T07:25:57.057Z,407.01
2019-03-30T07:26:57.063Z,408.41
2019-03-30T07:27:57.065Z,408.87
2019-03-30T07:28:57.053Z,408.56
2019-03-30T07:29:57.021Z,407.74
2019-03-30T07:30:57.050Z,407.94
2019-03-30T07:31:56.997Z,409.22
2019-03-30T07:32:57.077Z,408.65
2019-03-30T07:33:56.983Z,408.16
2019-03-30T07:34:56.972Z,408.10
2019-03-30T07:35:56.957Z,408.71
2019-03-30T07:36:56.946Z,408.94
2019-03-30T07:37:56.952Z,408.45
2019-03-30T07:38:56.926Z,408.33
2019-03-30T07:39:56.909Z,408.53
2019-03-30T07:40:56.904Z,408.50
2019-03-30T07:41:56.903Z,407.14
2019-03-30T07:42:56.909Z,408.70
2019-03-30T07:43:56.864Z,408.59
2019-03-30T07:44:56.863Z,408.68
2019-03-30T07:45:56.852Z,408.82
2019-03-30T07:46:56.841Z,408.00
2019-03-30T07:47:56.878Z,408.86
2019-03-30T07:48:56.805Z,408.67
2019-03-30T07:49:56.812Z,409.43
2019-03-30T07:50:56.798Z,409.02
2019-03-30T07:51:56.800Z,408.73
2019-03-30T07:52:56.771Z,408.54
2019-03-30T07:53:56.797Z,408.76
2019-03-30T07:54:56.746Z,409.55
2019-03-30T07:56:07.655Z,408.10
2019-03-30T07:57:04.989Z,408.92
2019-03-30T07:57:57.720Z,408.06
2019-03-30T07:58:56.713Z,408.16
2019-03-30T07:59:56.707Z,409.30
2019-03-30T08:00:56.703Z,409.20
2019-03-30T08:01:56.664Z,409.84
2019-03-30T08:02:56.659Z,407.88
2019-03-30T08:03:56.674Z,409.58
2019-03-30T08:04:56.636Z,409.50
2019-03-30T08:05:56.630Z,408.98
2019-03-30T08:06:56.621Z,409.00
2019-03-30T08:07:56.614Z,408.90
2019-03-30T08:08:56.626Z,408.70
2019-03-30T08:09:56.585Z,409.09
2019-03-30T08:10:56.570Z,408.88
2019-03-30T08:11:56.559Z,409.10
2019-03-30T08:12:56.556Z,408.70
2019-03-30T08:13:56.574Z,409.25
2019-03-30T08:14:56.520Z,408.98
2019-03-30T08:15:56.505Z,409.83
2019-03-30T08:16:56.511Z,409.63
2019-03-30T08:17:56.490Z,410.97
2019-03-30T08:18:56.498Z,409.97
2019-03-30T08:19:56.468Z,408.76
2019-03-30T08:20:56.460Z,409.52
2019-03-30T08:21:56.435Z,408.99
2019-03-30T08:22:56.445Z,409.67
2019-03-30T08:23:56.447Z,409.72
2019-03-30T08:24:56.416Z,409.93
2019-03-30T08:25:56.406Z,409.62
2019-03-30T08:26:56.414Z,409.07
2019-03-30T08:27:56.393Z,409.34
2019-03-30T08:28:56.382Z,409.80
2019-03-30T08:29:56.362Z,410.04
2019-03-30T08:30:56.348Z,410.10
2019-03-30T08:31:56.355Z,408.99
2019-03-30T08:32:56.338Z,409.56
2019-03-30T08:33:56.380Z,409.14
2019-03-30T08:34:56.323Z,410.44
2019-03-30T08:35:56.292Z,411.28
2019-03-30T08:36:59.178Z,409.58
2019-03-30T08:37:56.278Z,410.78
2019-03-30T08:38:56.299Z,409.18
2019-03-30T08:39:56.243Z,409.17
2019-03-30T08:40:56.237Z,410.39
2019-03-30T08:41:56.223Z,410.33
2019-03-30T08:42:56.222Z,410.21
2019-03-30T08:43:56.240Z,410.30
2019-03-30T08:44:56.192Z,409.27
2019-03-30T08:45:56.177Z,408.04
2019-03-30T08:46:56.164Z,408.04
2019-03-30T08:47:56.181Z,408.66
2019-03-30T08:48:56.184Z,409.57
2019-03-30T08:49:56.173Z,410.27
2019-03-30T08:50:56.119Z,408.67
2019-03-30T08:51:56.111Z,408.10
2019-03-30T08:52:56.105Z,408.45
2019-03-30T08:53:56.125Z,409.69
2019-03-30T08:54:56.075Z,410.67
2019-03-30T08:55:56.075Z,409.80
2019-03-30T08:56:56.057Z,408.54
2019-03-30T08:57:56.053Z,409.42
2019-03-30T08:58:56.071Z,408.34
2019-03-30T08:59:56.049Z,408.19
2019-03-30T09:00:56.027Z,409.36
2019-03-30T09:01:55.998Z,409.33
2019-03-30T09:02:55.989Z,408.71
2019-03-30T09:03:55.978Z,409.18
2019-03-30T09:04:55.986Z,409.81
2019-03-30T09:05:55.956Z,409.43
2019-03-30T09:06:55.953Z,409.74
2019-03-30T09:07:55.949Z,408.71
2019-03-30T09:08:55.931Z,409.13
2019-03-30T09:09:55.935Z,408.84
2019-03-30T09:10:55.899Z,408.92
2019-03-30T09:11:55.883Z,409.32
2019-03-30T09:12:55.873Z,409.00
2019-03-30T09:13:55.868Z,408.13
2019-03-30T09:14:55.874Z,409.78
2019-03-30T09:15:55.918Z,408.93
2019-03-30T09:16:55.851Z,408.48
2019-03-30T09:17:55.827Z,407.73
2019-03-30T09:18:55.813Z,408.96
2019-03-30T09:19:55.822Z,409.11
2019-03-30T09:20:55.793Z,408.85
2019-03-30T09:21:55.802Z,407.88
2019-03-30T09:22:55.774Z,409.86
2019-03-30T09:24:08.975Z,409.50
2019-03-30T09:24:56.764Z,408.00
2019-03-30T09:25:55.754Z,407.67
2019-03-30T09:26:55.723Z,407.45
2019-03-30T09:27:55.712Z,407.83
2019-03-30T09:28:55.702Z,409.25
2019-03-30T09:29:55.715Z,408.96
2019-03-30T09:30:55.700Z,408.74
2019-03-30T09:31:55.723Z,408.61
2019-03-30T09:32:55.650Z,410.08
2019-03-30T09:33:55.641Z,407.66
2019-03-30T09:34:55.641Z,407.77
2019-03-30T09:35:55.625Z,407.63
2019-03-30T09:36:55.727Z,408.58
2019-03-30T09:37:55.627Z,410.13
2019-03-30T09:38:55.604Z,408.72
2019-03-30T09:39:55.602Z,408.57
2019-03-30T09:40:55.573Z,408.95
2019-03-30T09:41:55.557Z,409.55
2019-03-30T09:42:55.555Z,408.78
2019-03-30T09:43:55.550Z,409.07
2019-03-30T09:44:55.533Z,409.05
2019-03-30T09:45:55.509Z,409.50
2019-03-30T09:46:55.506Z,408.43
2019-03-30T09:47:55.489Z,409.93
2019-03-30T09:48:55.474Z,409.10
2019-03-30T09:49:55.494Z,409.14
2019-03-30T09:50:55.459Z,408.24
2019-03-30T09:51:55.440Z,407.56
2019-03-30T09:52:55.537Z,408.44
2019-03-30T09:53:55.430Z,408.65
2019-03-30T09:54:55.422Z,407.15
2019-03-30T09:55:55.409Z,410.30
2019-03-30T09:56:55.393Z,407.96
2019-03-30T09:57:55.383Z,409.02
2019-03-30T09:58:55.362Z,408.24
2019-03-30T09:59:55.378Z,408.30
2019-03-30T10:00:55.341Z,407.48
2019-03-30T10:01:55.329Z,408.21
2019-03-30T10:02:55.324Z,408.72
2019-03-30T10:03:55.303Z,407.94
2019-03-30T10:04:55.367Z,406.83
2019-03-30T10:05:55.301Z,408.88
2019-03-30T10:06:55.281Z,408.97
2019-03-30T10:07:55.263Z,409.02
2019-03-30T10:08:55.246Z,407.58
2019-03-30T10:09:55.262Z,406.58
2019-03-30T10:10:55.255Z,409.09
2019-03-30T10:11:55.242Z,408.81
2019-03-30T10:12:55.218Z,408.18
2019-03-30T10:13:55.201Z,408.05
2019-03-30T10:14:55.228Z,407.97
2019-03-30T10:15:55.182Z,407.98
2019-03-30T10:16:55.177Z,405.54
2019-03-30T10:17:55.150Z,407.79
2019-03-30T10:18:55.147Z,406.95
2019-03-30T10:20:04.209Z,407.42
2019-03-30T10:20:56.127Z,408.06
2019-03-30T10:21:55.121Z,408.27
2019-03-30T10:22:55.112Z,409.82
2019-03-30T10:23:55.177Z,409.11
2019-03-30T10:24:58.275Z,406.84
2019-03-30T10:25:55.074Z,408.29
2019-03-30T10:26:55.054Z,407.57
2019-03-30T10:27:55.086Z,407.28
2019-03-30T10:28:55.043Z,407.40
2019-03-30T10:29:55.043Z,408.45
2019-03-30T10:30:55.017Z,409.60
2019-03-30T10:31:55.015Z,410.32
2019-03-30T10:32:54.996Z,409.21
2019-03-30T10:33:54.994Z,407.18
2019-03-30T10:34:54.998Z,408.70
2019-03-30T10:35:54.956Z,411.30
2019-03-30T10:36:54.951Z,409.15
2019-03-30T10:37:54.930Z,407.53
2019-03-30T10:38:54.929Z,410.23
2019-03-30T10:39:54.971Z,413.11
2019-03-30T10:40:54.901Z,409.70
2019-03-30T10:41:54.897Z,406.68
2019-03-30T10:42:54.882Z,407.08
2019-03-30T10:43:54.870Z,407.76
2019-03-30T10:44:54.868Z,407.94
2019-03-30T10:45:54.870Z,408.52
2019-03-30T10:46:54.829Z,407.90
2019-03-30T10:47:54.815Z,407.40
2019-03-30T10:48:54.821Z,407.88
2019-03-30T10:49:54.829Z,406.38
2019-03-30T10:50:54.864Z,406.73
2019-03-30T10:51:54.773Z,407.85
2019-03-30T10:52:54.776Z,407.96
2019-03-30T10:53:54.758Z,409.80
2019-03-30T10:54:54.755Z,407.05
2019-03-30T10:55:54.763Z,407.88
2019-03-30T10:56:54.722Z,408.06
2019-03-30T10:57:54.716Z,408.66
2019-03-30T10:58:54.699Z,406.53
2019-03-30T10:59:54.693Z,407.89
2019-03-30T11:00:54.702Z,408.78
2019-03-30T11:01:54.678Z,409.54
2019-03-30T11:02:54.651Z,408.29
2019-03-30T11:03:54.650Z,412.77
2019-03-30T11:04:54.632Z,411.78
2019-03-30T11:05:54.639Z,410.25
2019-03-30T11:06:54.610Z,408.39
2019-03-30T11:07:54.645Z,407.80
2019-03-30T11:08:54.592Z,409.52
2019-03-30T11:09:54.651Z,408.39
2019-03-30T11:10:54.604Z,409.80
2019-03-30T11:11:54.563Z,409.39
2019-03-30T11:12:54.558Z,408.08
2019-03-30T11:13:54.547Z,408.92
2019-03-30T11:14:54.521Z,407.23
2019-03-30T11:15:54.522Z,410.65
2019-03-30T11:16:54.495Z,409.38
2019-03-30T11:17:54.491Z,409.56
2019-03-30T11:18:54.477Z,408.59
2019-03-30T11:19:54.465Z,407.59
2019-03-30T11:20:54.476Z,408.30
2019-03-30T11:21:54.442Z,410.52
2019-03-30T11:22:54.425Z,408.42
2019-03-30T11:23:54.422Z,407.10
2019-03-30T11:25:06.713Z,409.44
2019-03-30T11:25:55.411Z,408.98
2019-03-30T11:26:54.383Z,411.73
2019-03-30T11:27:54.375Z,408.53
2019-03-30T11:28:54.378Z,407.20
2019-03-30T11:29:54.360Z,410.80
2019-03-30T11:30:54.377Z,409.16
2019-03-30T11:31:54.329Z,409.21
2019-03-30T11:32:54.318Z,409.27
2019-03-30T11:33:54.316Z,411.45
2019-03-30T11:34:54.305Z,408.15
2019-03-30T11:35:54.319Z,412.58
2019-03-30T11:36:54.275Z,410.04
2019-03-30T11:37:54.261Z,411.58
2019-03-30T11:38:54.254Z,409.66
2019-03-30T11:39:54.241Z,407.27
2019-03-30T11:40:54.244Z,407.48
2019-03-30T11:41:54.211Z,408.81
2019-03-30T11:42:54.200Z,409.09
2019-03-30T11:43:54.201Z,412.32
2019-03-30T11:44:54.184Z,410.83
2019-03-30T11:45:54.192Z,412.12
2019-03-30T11:46:54.173Z,411.98
2019-03-30T11:47:54.156Z,409.35
2019-03-30T11:48:54.135Z,413.07
2019-03-30T11:49:54.148Z,407.75
2019-03-30T11:50:54.183Z,410.58
2019-03-30T11:51:54.115Z,412.20
2019-03-30T11:52:54.105Z,413.18
2019-03-30T11:53:54.078Z,409.95
2019-03-30T11:54:54.075Z,411.94
2019-03-30T11:55:54.082Z,409.48
2019-03-30T11:56:54.054Z,411.29
2019-03-30T11:57:54.051Z,409.69
2019-03-30T11:58:54.024Z,410.51
2019-03-30T11:59:54.032Z,411.27
2019-03-30T12:00:54.023Z,410.56
2019-03-30T12:01:53.994Z,410.17
2019-03-30T12:02:53.982Z,412.25
2019-03-30T12:03:53.979Z,407.80
2019-03-30T12:04:53.988Z,412.79
2019-03-30T12:05:53.966Z,410.19
2019-03-30T12:06:53.943Z,407.86
2019-03-30T12:07:53.934Z,411.20
2019-03-30T12:08:53.923Z,413.39
2019-03-30T12:09:53.917Z,411.77
2019-03-30T12:10:53.936Z,406.75
2019-03-30T12:11:53.914Z,411.85
2019-03-30T12:12:53.890Z,411.69
2019-03-30T12:13:53.864Z,410.61
2019-03-30T12:14:53.856Z,411.70
2019-03-30T12:15:53.870Z,408.37
2019-03-30T12:16:53.832Z,410.42
2019-03-30T12:17:53.822Z,413.42
2019-03-30T12:18:53.847Z,412.31
2019-03-30T12:19:53.822Z,411.05
2019-03-30T12:20:53.823Z,412.32
2019-03-30T12:21:53.780Z,411.27
2019-03-30T12:22:53.767Z,410.44
2019-03-30T12:23:53.756Z,411.00
2019-03-30T12:24:53.748Z,410.23
2019-03-30T12:25:53.751Z,412.87
2019-03-30T12:26:55.481Z,413.37
2019-03-30T12:27:53.713Z,408.50